createdAt,value
2018-10-02T00:01:19.098Z,7.10
2018-10-02T00:03:50.317Z,7.10
2018-10-02T00:06:19.776Z,7.20
2018-10-02T00:08:50.698Z,7.20
2018-10-02T00:11:25.218Z,7.20
2018-10-02T00:13:59.589Z,7.20
2018-10-02T00:16:28.795Z,7.30
2018-10-02T00:18:57.992Z,7.40
2018-10-02T00:21:28.262Z,7.30
2018-10-02T00:23:57.459Z,7.20
2018-10-02T00:26:26.692Z,7.10
2018-10-02T00:28:55.878Z,7.10
2018-10-02T00:31:25.425Z,7.00
2018-10-02T00:33:54.585Z,6.90
2018-10-02T00:36:23.799Z,6.80
2018-10-02T00:38:53.003Z,6.70
2018-10-02T00:41:22.237Z,6.60
2018-10-02T00:43:52.300Z,6.60
2018-10-02T00:46:21.451Z,6.50
2018-10-02T00:48:52.431Z,6.50
2018-10-02T00:51:21.706Z,6.40
2018-10-02T00:53:51.473Z,6.30
2018-10-02T00:56:20.684Z,6.10
2018-10-02T00:58:49.859Z,6.00
2018-10-02T01:01:19.564Z,6.00
2018-10-02T01:03:48.762Z,6.00
2018-10-02T01:06:18.223Z,6.00
2018-10-02T01:08:47.456Z,5.90
2018-10-02T01:11:16.734Z,5.90
2018-10-02T01:13:45.963Z,5.90
2018-10-02T01:16:15.175Z,5.90
2018-10-02T01:18:44.369Z,5.90
2018-10-02T01:21:13.733Z,5.80
2018-10-02T01:23:42.999Z,5.70
2018-10-02T01:26:12.186Z,5.60
2018-10-02T01:28:41.976Z,5.70
2018-10-02T01:31:11.315Z,5.70
2018-10-02T01:33:40.488Z,5.50
2018-10-02T01:36:10.236Z,5.50
2018-10-02T01:38:39.505Z,5.40
2018-10-02T01:41:08.721Z,5.20
2018-10-02T01:43:37.887Z,4.90
2018-10-02T01:46:07.149Z,4.90
2018-10-02T01:48:36.317Z,4.70
2018-10-02T01:51:05.574Z,4.60
2018-10-02T01:53:35.026Z,4.60
2018-10-02T01:56:04.242Z,4.60
2018-10-02T01:58:33.490Z,4.70
2018-10-02T02:01:03.760Z,4.70
2018-10-02T02:03:32.982Z,4.70
2018-10-02T02:06:02.225Z,4.70
2018-10-02T02:08:31.483Z,4.80
2018-10-02T02:11:00.762Z,4.80
2018-10-02T02:13:29.954Z,4.90
2018-10-02T02:15:59.915Z,4.90
2018-10-02T02:18:29.119Z,5.00
2018-10-02T02:20:59.383Z,5.00
2018-10-02T02:23:28.612Z,5.10
2018-10-02T02:25:57.809Z,5.20
2018-10-02T02:28:26.983Z,5.20
2018-10-02T02:30:59.906Z,5.30
2018-10-02T02:33:29.376Z,5.20
2018-10-02T02:35:58.605Z,5.20
2018-10-02T02:38:27.775Z,5.10
2018-10-02T02:40:58.376Z,5.00
2018-10-02T02:43:27.570Z,4.90
2018-10-02T02:45:57.396Z,4.90
2018-10-02T02:48:32.341Z,4.90
2018-10-02T02:51:06.955Z,4.90
2018-10-02T02:53:36.273Z,4.80
2018-10-02T02:56:05.712Z,4.80
2018-10-02T02:58:34.876Z,4.80
2018-10-02T03:01:04.189Z,4.70
2018-10-02T03:03:33.352Z,4.70
2018-10-02T03:06:02.526Z,4.70
2018-10-02T03:08:31.832Z,4.60
2018-10-02T03:11:01.155Z,4.60
2018-10-02T03:13:30.335Z,4.50
2018-10-02T03:16:01.466Z,4.50
2018-10-02T03:18:30.687Z,4.50
2018-10-02T03:21:00.563Z,4.40
2018-10-02T03:23:29.802Z,4.30
2018-10-02T03:25:59.666Z,4.20
2018-10-02T03:28:28.893Z,4.30
2018-10-02T03:30:59.030Z,4.20
2018-10-02T03:33:28.208Z,4.10
2018-10-02T03:35:59.186Z,4.10
2018-10-02T03:38:28.424Z,4.00
2018-10-02T03:40:57.742Z,4.00
2018-10-02T03:43:26.919Z,4.00
2018-10-02T03:45:56.186Z,3.90
2018-10-02T03:48:25.551Z,3.90
2018-10-02T03:50:54.918Z,3.90
2018-10-02T03:53:24.098Z,3.80
2018-10-02T03:55:53.280Z,3.80
2018-10-02T03:58:22.513Z,3.80
2018-10-02T04:00:51.881Z,3.80
2018-10-02T04:03:21.146Z,3.80
2018-10-02T04:05:50.268Z,3.70
2018-10-02T04:08:19.464Z,3.80
2018-10-02T04:10:48.775Z,3.70
2018-10-02T04:13:18.058Z,3.70
2018-10-02T04:15:47.165Z,3.70
2018-10-02T04:18:16.348Z,3.70
2018-10-02T04:20:45.721Z,3.70
2018-10-02T04:23:15.218Z,3.60
2018-10-02T04:25:46.828Z,3.60
2018-10-02T04:28:16.045Z,3.60
2018-10-02T04:30:46.513Z,3.60
2018-10-02T04:33:15.706Z,3.60
2018-10-02T04:35:44.957Z,3.50
2018-10-02T04:38:14.191Z,3.50
2018-10-02T04:40:43.648Z,3.50
2018-10-02T04:43:12.884Z,3.40
2018-10-02T04:45:42.082Z,3.40
2018-10-02T04:48:11.264Z,3.30
2018-10-02T04:50:40.577Z,3.30
2018-10-02T04:53:09.758Z,3.30
2018-10-02T04:55:38.982Z,3.30
2018-10-02T04:58:08.129Z,3.30
2018-10-02T05:00:37.376Z,3.30
2018-10-02T05:03:06.654Z,3.30
2018-10-02T05:05:35.885Z,3.20
2018-10-02T05:08:05.264Z,3.20
2018-10-02T05:10:34.545Z,3.20
2018-10-02T05:13:03.796Z,3.20
2018-10-02T05:15:32.996Z,3.20
2018-10-02T05:18:02.800Z,3.20
2018-10-02T05:20:32.448Z,3.20
2018-10-02T05:23:01.812Z,3.20
2018-10-02T05:25:31.013Z,3.20
2018-10-02T05:28:00.233Z,3.30
2018-10-02T05:30:29.582Z,3.20
2018-10-02T05:32:58.771Z,3.20
2018-10-02T05:35:28.321Z,3.20
2018-10-02T05:37:57.586Z,3.30
2018-10-02T05:40:27.862Z,3.40
2018-10-02T05:42:57.034Z,3.50
2018-10-02T05:45:26.243Z,3.60
2018-10-02T05:47:55.596Z,3.60
2018-10-02T05:50:25.863Z,3.60
2018-10-02T05:52:55.042Z,3.60
2018-10-02T05:55:24.255Z,3.50
2018-10-02T05:57:53.511Z,3.60
2018-10-02T06:00:22.916Z,3.50
2018-10-02T06:02:52.151Z,3.60
2018-10-02T06:05:21.359Z,3.50
2018-10-02T06:07:50.600Z,3.50
2018-10-02T06:10:20.568Z,3.50
2018-10-02T06:12:49.757Z,3.50
2018-10-02T06:15:18.966Z,3.60
2018-10-02T06:17:48.265Z,3.60
2018-10-02T06:20:17.694Z,3.60
2018-10-02T06:22:46.892Z,3.60
2018-10-02T06:25:16.133Z,3.60
2018-10-02T06:27:45.355Z,3.70
2018-10-02T06:30:14.720Z,3.80
2018-10-02T06:32:43.898Z,3.90
2018-10-02T06:35:13.074Z,4.10
2018-10-02T06:37:42.288Z,4.30
2018-10-02T06:40:11.638Z,4.50
2018-10-02T06:42:40.876Z,4.70
2018-10-02T06:45:10.243Z,4.90
2018-10-02T06:47:39.451Z,5.00
2018-10-02T06:50:10.055Z,5.20
2018-10-02T06:52:39.668Z,5.30
2018-10-02T06:55:08.995Z,5.40
2018-10-02T06:57:38.604Z,5.50
2018-10-02T07:00:08.020Z,5.50
2018-10-02T07:02:37.291Z,5.50
2018-10-02T07:05:07.506Z,5.60
2018-10-02T07:07:37.826Z,5.60
2018-10-02T07:10:08.662Z,5.70
2018-10-02T07:12:38.036Z,5.80
2018-10-02T07:15:07.623Z,5.80
2018-10-02T07:17:36.878Z,5.90
2018-10-02T07:20:09.197Z,6.10
2018-10-02T07:22:38.466Z,6.30
2018-10-02T07:25:08.310Z,6.40
2018-10-02T07:27:37.614Z,6.50
2018-10-02T07:30:07.540Z,6.60
2018-10-02T07:32:36.779Z,6.70
2018-10-02T07:35:08.376Z,6.70
2018-10-02T07:37:37.600Z,6.80
2018-10-02T07:40:08.781Z,6.90
2018-10-02T07:42:38.189Z,7.00
2018-10-02T07:45:08.130Z,6.90
2018-10-02T07:47:37.322Z,7.00
2018-10-02T07:50:06.785Z,7.10
2018-10-02T07:52:36.300Z,7.20
2018-10-02T07:55:05.845Z,7.50
2018-10-02T07:57:35.502Z,7.70
2018-10-02T08:00:05.588Z,7.80
2018-10-02T08:02:35.163Z,7.90
2018-10-02T08:05:04.495Z,8.00
2018-10-02T08:07:33.611Z,8.00
2018-10-02T08:10:02.842Z,8.20
2018-10-02T08:12:32.214Z,8.50
2018-10-02T08:15:01.438Z,8.50
2018-10-02T08:17:30.899Z,8.50
2018-10-02T08:20:00.118Z,8.60
2018-10-02T08:22:29.256Z,8.60
2018-10-02T08:24:58.425Z,8.70
2018-10-02T08:27:27.729Z,8.90
2018-10-02T08:29:56.952Z,8.60
2018-10-02T08:32:26.424Z,8.80
2018-10-02T08:34:55.627Z,8.90
2018-10-02T08:37:24.870Z,9.10
2018-10-02T08:39:54.389Z,9.20
2018-10-02T08:42:23.589Z,9.40
2018-10-02T08:44:54.356Z,9.60
2018-10-02T08:47:24.726Z,9.60
2018-10-02T08:49:53.867Z,9.70
2018-10-02T08:52:23.180Z,9.90
2018-10-02T08:54:52.829Z,10.10
2018-10-02T08:57:22.005Z,10.10
2018-10-02T08:59:51.267Z,10.30
2018-10-02T09:02:22.502Z,10.50
2018-10-02T09:04:51.807Z,10.30
2018-10-02T09:07:21.038Z,10.20
2018-10-02T09:09:50.547Z,10.40
2018-10-02T09:12:23.237Z,10.50
2018-10-02T09:14:52.507Z,10.60
2018-10-02T09:17:24.040Z,10.60
2018-10-02T09:19:53.303Z,10.50
2018-10-02T09:22:22.588Z,10.50
2018-10-02T09:24:51.867Z,10.70
2018-10-02T09:27:21.089Z,10.80
2018-10-02T09:29:55.938Z,10.70
2018-10-02T09:32:31.116Z,10.70
2018-10-02T09:35:05.443Z,10.90
2018-10-02T09:37:40.112Z,11.20
2018-10-02T09:40:15.706Z,11.30
2018-10-02T09:42:50.883Z,11.30
2018-10-02T09:45:20.560Z,11.10
2018-10-02T09:47:49.924Z,10.90
2018-10-02T09:50:19.936Z,10.80
2018-10-02T09:52:49.203Z,11.00
2018-10-02T09:55:18.606Z,11.20
2018-10-02T09:57:47.953Z,11.30
2018-10-02T10:00:21.805Z,11.50
2018-10-02T10:02:56.870Z,11.70
2018-10-02T10:05:27.351Z,11.60
2018-10-02T10:07:56.588Z,11.70
2018-10-02T10:10:28.239Z,11.90
2018-10-02T10:12:57.781Z,11.70
2018-10-02T10:15:27.036Z,11.60
2018-10-02T10:17:56.359Z,11.50
2018-10-02T10:20:25.632Z,11.50
2018-10-02T10:22:54.929Z,11.60
2018-10-02T10:25:24.304Z,11.70
2018-10-02T10:27:53.566Z,11.80
2018-10-02T10:30:22.855Z,11.60
2018-10-02T10:32:52.110Z,11.70
2018-10-02T10:35:21.468Z,11.70
2018-10-02T10:37:50.830Z,11.70
2018-10-02T10:40:20.212Z,11.60
2018-10-02T10:42:49.433Z,11.50
2018-10-02T10:45:18.629Z,11.50
2018-10-02T10:47:48.084Z,11.50
2018-10-02T10:50:18.603Z,11.40
2018-10-02T10:52:48.076Z,11.60
2018-10-02T10:55:31.279Z,11.80
2018-10-02T10:58:00.493Z,11.80
2018-10-02T11:00:29.828Z,12.00
2018-10-02T11:02:59.174Z,11.90
2018-10-02T11:05:28.321Z,11.90
2018-10-02T11:07:57.529Z,11.70
2018-10-02T11:10:26.897Z,11.50
2018-10-02T11:12:56.198Z,11.90
2018-10-02T11:15:27.639Z,11.90
2018-10-02T11:17:56.842Z,12.00
2018-10-02T11:20:28.771Z,11.90
2018-10-02T11:22:58.303Z,12.00
2018-10-02T11:25:27.671Z,11.90
2018-10-02T11:27:56.906Z,12.00
2018-10-02T11:30:26.232Z,12.00
2018-10-02T11:32:55.531Z,12.20
2018-10-02T11:35:24.921Z,12.00
2018-10-02T11:37:54.290Z,12.20
2018-10-02T11:40:23.783Z,12.10
2018-10-02T11:42:53.091Z,12.20
2018-10-02T11:45:26.228Z,12.20
2018-10-02T11:48:00.537Z,12.20
2018-10-02T11:50:32.112Z,12.30
2018-10-02T11:53:02.593Z,12.50
2018-10-02T11:55:32.042Z,12.70
2018-10-02T11:58:01.341Z,13.00
2018-10-02T12:00:30.691Z,13.10
2018-10-02T12:03:01.104Z,13.40
2018-10-02T12:05:30.516Z,13.30
2018-10-02T12:08:00.418Z,13.70
2018-10-02T12:10:29.847Z,13.50
2018-10-02T12:12:59.070Z,13.60
2018-10-02T12:15:28.226Z,13.70
2018-10-02T12:17:58.357Z,13.90
2018-10-02T12:20:27.759Z,13.70
2018-10-02T12:22:56.985Z,13.70
2018-10-02T12:25:26.196Z,13.50
2018-10-02T12:27:56.347Z,13.60
2018-10-02T12:30:26.966Z,13.90
2018-10-02T12:32:56.186Z,13.90
2018-10-02T12:35:25.403Z,13.50
2018-10-02T12:37:54.659Z,13.30
2018-10-02T12:40:25.008Z,13.30
2018-10-02T12:42:54.267Z,13.50
2018-10-02T12:45:23.758Z,13.50
2018-10-02T12:47:54.299Z,13.50
2018-10-02T12:50:23.730Z,13.50
2018-10-02T12:52:54.191Z,13.00
2018-10-02T12:55:23.356Z,13.20
2018-10-02T12:57:53.218Z,13.40
2018-10-02T13:00:22.541Z,12.90
2018-10-02T13:02:51.753Z,12.70
2018-10-02T13:05:21.907Z,12.90
2018-10-02T13:07:51.155Z,13.20
2018-10-02T13:10:21.315Z,13.30
2018-10-02T13:12:51.743Z,12.90
2018-10-02T13:15:21.626Z,12.90
2018-10-02T13:17:50.988Z,12.90
2018-10-02T13:20:21.572Z,12.70
2018-10-02T13:22:50.898Z,12.80
2018-10-02T13:25:21.232Z,12.50
2018-10-02T13:27:50.423Z,12.40
2018-10-02T13:30:21.240Z,12.50
2018-10-02T13:32:50.483Z,12.60
2018-10-02T13:35:20.674Z,12.70
2018-10-02T13:37:50.044Z,12.80
2018-10-02T13:40:21.188Z,12.70
2018-10-02T13:42:50.423Z,12.50
2018-10-02T13:45:20.988Z,12.20
2018-10-02T13:47:50.253Z,12.20
2018-10-02T13:50:19.625Z,12.20
2018-10-02T13:52:48.889Z,12.30
2018-10-02T13:55:18.187Z,12.50
2018-10-02T13:57:47.571Z,12.60
2018-10-02T14:00:21.629Z,12.20
2018-10-02T14:02:51.033Z,12.30
2018-10-02T14:05:20.615Z,12.20
2018-10-02T14:07:49.894Z,12.20
2018-10-02T14:10:22.611Z,12.10
2018-10-02T14:12:51.855Z,11.90
2018-10-02T14:15:22.002Z,11.70
2018-10-02T14:17:51.213Z,11.50
2018-10-02T14:20:22.577Z,11.30
2018-10-02T14:22:51.907Z,11.30
2018-10-02T14:25:21.617Z,11.40
2018-10-02T14:27:50.928Z,11.40
2018-10-02T14:30:23.705Z,11.40
2018-10-02T14:32:52.906Z,11.50
2018-10-02T14:35:22.934Z,11.40
2018-10-02T14:37:52.341Z,11.20
2018-10-02T14:40:25.169Z,11.30
2018-10-02T14:42:54.528Z,11.30
2018-10-02T14:45:25.394Z,11.20
2018-10-02T14:47:54.681Z,11.40
2018-10-02T14:50:25.069Z,11.50
2018-10-02T14:52:54.345Z,11.50
2018-10-02T14:55:24.427Z,11.60
2018-10-02T14:57:53.831Z,11.80
2018-10-02T15:00:23.896Z,11.80
2018-10-02T15:02:53.131Z,11.90
2018-10-02T15:05:24.414Z,11.80
2018-10-02T15:07:53.769Z,11.70
2018-10-02T15:10:25.295Z,11.60
2018-10-02T15:12:54.576Z,11.70
2018-10-02T15:15:26.786Z,11.70
2018-10-02T15:17:56.054Z,11.60
2018-10-02T15:20:27.915Z,11.50
2018-10-02T15:22:57.709Z,11.60
2018-10-02T15:25:28.678Z,11.70
2018-10-02T15:27:59.566Z,11.60
2018-10-02T15:30:31.872Z,11.60
2018-10-02T15:33:01.810Z,11.70
2018-10-02T15:35:33.966Z,11.70
2018-10-02T15:38:03.248Z,11.70
2018-10-02T15:40:35.519Z,11.70
2018-10-02T15:43:04.711Z,11.70
2018-10-02T15:45:33.904Z,11.70
2018-10-02T15:48:03.171Z,11.60
2018-10-02T15:50:34.021Z,11.50
2018-10-02T15:53:03.242Z,11.50
2018-10-02T15:55:33.892Z,11.50
2018-10-02T15:58:03.193Z,11.50
2018-10-02T16:00:33.980Z,11.50
2018-10-02T16:03:03.165Z,11.60
2018-10-02T16:05:33.419Z,11.70
2018-10-02T16:08:02.823Z,11.60
2018-10-02T16:10:33.842Z,11.70
2018-10-02T16:13:03.143Z,11.60
2018-10-02T16:15:33.624Z,11.70
2018-10-02T16:18:02.998Z,11.60
2018-10-02T16:20:33.339Z,11.60
2018-10-02T16:23:02.606Z,11.70
2018-10-02T16:25:33.404Z,11.70
2018-10-02T16:28:02.539Z,11.70
2018-10-02T16:30:33.861Z,11.70
2018-10-02T16:33:03.463Z,11.70
2018-10-02T16:35:33.913Z,11.60
2018-10-02T16:38:06.423Z,11.60
2018-10-02T16:43:39.440Z,11.50
2018-10-02T16:46:09.821Z,11.60
2018-10-02T16:48:41.651Z,11.50
2018-10-02T16:51:13.837Z,11.50
2018-10-02T16:53:43.080Z,11.40
2018-10-02T16:56:14.885Z,11.40
2018-10-02T16:58:44.338Z,11.40
2018-10-02T17:01:16.733Z,11.40
2018-10-02T17:03:47.433Z,11.40
2018-10-02T17:06:19.489Z,11.30
2018-10-02T17:08:48.675Z,11.30
2018-10-02T17:11:20.928Z,11.30
2018-10-02T17:13:50.190Z,11.30
2018-10-02T17:16:21.768Z,11.30
2018-10-02T17:18:51.014Z,11.30
2018-10-02T17:21:22.561Z,11.30
2018-10-02T17:23:51.757Z,11.20
2018-10-02T17:26:24.042Z,11.10
2018-10-02T17:29:13.679Z,11.10
2018-10-02T17:31:43.419Z,11.20
2018-10-02T17:34:12.728Z,11.30
2018-10-02T17:36:45.041Z,11.30
2018-10-02T17:39:14.621Z,11.20
2018-10-02T17:41:44.447Z,11.10
2018-10-02T17:44:14.465Z,11.20
2018-10-02T17:46:46.384Z,11.10
2018-10-02T17:49:15.516Z,11.20
2018-10-02T17:51:47.720Z,11.10
2018-10-02T17:54:17.608Z,11.00
2018-10-02T17:56:49.113Z,11.00
2018-10-02T17:59:18.449Z,10.90
2018-10-02T18:01:47.838Z,10.90
2018-10-02T18:04:17.035Z,11.00
2018-10-02T18:06:48.694Z,11.00
2018-10-02T18:09:17.895Z,11.00
2018-10-02T18:11:49.718Z,11.00
2018-10-02T18:14:18.920Z,11.10
2018-10-02T18:16:51.201Z,11.10
2018-10-02T18:19:20.396Z,11.10
2018-10-02T18:21:51.909Z,11.00
2018-10-02T18:24:21.265Z,10.90
2018-10-02T18:26:53.273Z,10.90
2018-10-02T18:29:22.458Z,10.80
2018-10-02T18:31:54.265Z,10.90
2018-10-02T18:34:23.523Z,10.90
2018-10-02T18:36:55.496Z,10.90
2018-10-02T18:39:24.835Z,10.80
2018-10-02T18:41:58.029Z,10.80
2018-10-02T18:44:27.759Z,10.80
2018-10-02T18:47:00.596Z,10.80
2018-10-02T18:49:29.954Z,10.80
2018-10-02T18:52:02.280Z,10.80
2018-10-02T18:54:31.606Z,10.70
2018-10-02T18:57:03.625Z,10.70
2018-10-02T18:59:33.618Z,10.80
2018-10-02T19:02:06.677Z,10.80
2018-10-02T19:04:37.377Z,10.80
2018-10-02T19:07:06.708Z,10.70
2018-10-02T19:09:36.818Z,10.70
2018-10-02T19:12:12.034Z,10.70
2018-10-02T19:14:41.286Z,10.70
2018-10-02T19:17:10.558Z,10.60
2018-10-02T19:19:44.912Z,10.50
2018-10-02T19:22:20.147Z,10.50
2018-10-02T19:24:49.508Z,10.60
2018-10-02T19:27:22.089Z,10.50
2018-10-02T19:29:56.652Z,10.50
2018-10-02T19:32:28.333Z,10.50
2018-10-02T19:34:58.199Z,10.40
2018-10-02T19:37:32.849Z,10.40
2018-10-02T19:40:02.350Z,10.40
2018-10-02T19:42:31.702Z,10.40
2018-10-02T19:45:05.213Z,10.40
2018-10-02T19:47:34.778Z,10.40
2018-10-02T19:50:07.163Z,10.50
2018-10-02T19:52:36.759Z,10.50
2018-10-02T19:55:06.107Z,10.50
2018-10-02T19:57:35.928Z,10.40
2018-10-02T20:00:09.346Z,10.40
2018-10-02T20:02:41.601Z,10.40
2018-10-02T20:05:11.374Z,10.40
2018-10-02T20:07:40.642Z,10.30
2018-10-02T20:10:09.890Z,10.20
2018-10-02T20:12:40.055Z,10.10
2018-10-02T20:15:09.452Z,10.00
2018-10-02T20:17:39.387Z,9.90
2018-10-02T20:20:08.586Z,9.80
2018-10-02T20:22:39.828Z,9.80
2018-10-02T20:25:17.436Z,9.80
2018-10-02T20:27:47.135Z,9.70
2018-10-02T20:30:17.498Z,9.70
2018-10-02T20:32:46.743Z,9.80
2018-10-02T20:35:16.069Z,9.70
2018-10-02T20:37:46.632Z,9.80
2018-10-02T20:40:16.141Z,9.90
2018-10-02T20:42:45.331Z,9.80
2018-10-02T20:45:20.071Z,9.80
2018-10-02T20:47:49.368Z,9.90
2018-10-02T20:50:21.219Z,9.90
2018-10-02T20:52:50.669Z,9.90
2018-10-02T20:55:21.711Z,9.90
2018-10-02T20:57:51.108Z,9.90
2018-10-02T21:00:20.919Z,10.00
2018-10-02T21:02:50.543Z,10.10
2018-10-02T21:05:21.136Z,10.20
2018-10-02T21:07:50.657Z,10.20
2018-10-02T21:10:20.308Z,10.20
2018-10-02T21:12:49.838Z,10.20
2018-10-02T21:15:20.961Z,10.20
2018-10-02T21:17:52.827Z,10.20
2018-10-02T21:20:23.714Z,10.20
2018-10-02T21:22:53.222Z,10.20
2018-10-02T21:25:22.609Z,10.20
2018-10-02T21:27:51.901Z,10.20
2018-10-02T21:30:23.772Z,10.20
2018-10-02T21:32:53.096Z,10.30
2018-10-02T21:35:24.520Z,10.20
2018-10-02T21:37:53.842Z,10.20
2018-10-02T21:40:25.083Z,10.10
2018-10-02T21:42:54.988Z,10.00
2018-10-02T21:45:24.330Z,10.00
2018-10-02T21:47:54.016Z,9.90
2018-10-02T21:50:25.097Z,9.90
2018-10-02T21:52:54.384Z,9.90
2018-10-02T21:55:23.552Z,10.10
2018-10-02T21:57:52.934Z,9.90
2018-10-02T22:00:22.521Z,9.90
2018-10-02T22:02:51.812Z,9.90
2018-10-02T22:05:21.526Z,9.90
2018-10-02T22:07:50.804Z,9.90
2018-10-02T22:10:20.307Z,10.00
2018-10-02T22:12:49.519Z,10.10
2018-10-02T22:15:19.087Z,10.10
2018-10-02T22:17:48.327Z,10.10
2018-10-02T22:20:17.991Z,10.30
2018-10-02T22:22:47.277Z,10.40
2018-10-02T22:25:16.491Z,10.40
2018-10-02T22:27:46.121Z,10.50
2018-10-02T22:30:15.700Z,10.60
2018-10-02T22:32:45.268Z,10.60
2018-10-02T22:35:14.620Z,10.60
2018-10-02T22:37:44.123Z,10.70
2018-10-02T22:40:13.745Z,10.70
2018-10-02T22:42:43.452Z,10.70
2018-10-02T22:45:13.633Z,10.70
2018-10-02T22:47:44.778Z,10.70
2018-10-02T22:50:14.230Z,10.80
2018-10-02T22:52:43.867Z,10.80
2018-10-02T22:55:13.887Z,10.80
2018-10-02T22:57:44.339Z,10.80
2018-10-02T23:00:14.906Z,10.70
2018-10-02T23:02:44.288Z,10.60
2018-10-02T23:05:13.467Z,10.60
2018-10-02T23:07:43.049Z,10.60
2018-10-02T23:10:12.760Z,10.50
2018-10-02T23:12:42.270Z,10.40
2018-10-02T23:15:12.379Z,10.30
2018-10-02T23:17:41.627Z,10.40
2018-10-02T23:20:10.823Z,10.30
2018-10-02T23:22:40.231Z,10.40
2018-10-02T23:25:09.475Z,10.50
2018-10-02T23:27:38.706Z,10.50
2018-10-02T23:30:08.175Z,10.60
2018-10-02T23:32:37.450Z,10.60
2018-10-02T23:35:06.660Z,10.60
2018-10-02T23:37:35.888Z,10.70
2018-10-02T23:40:05.595Z,10.80
2018-10-02T23:42:34.822Z,10.80
2018-10-02T23:45:04.448Z,10.90
2018-10-02T23:47:34.050Z,10.90
2018-10-02T23:50:03.271Z,10.90
2018-10-02T23:52:32.780Z,10.90
2018-10-02T23:55:02.004Z,10.90
2018-10-02T23:57:32.129Z,10.80
